createdAt,value
2023-01-17T00:05:30.530Z,3.72
2023-01-17T00:34:12.563Z,3.87
2023-01-17T01:03:02.866Z,4.01
2023-01-17T01:31:46.749Z,3.86
2023-01-17T02:00:30.837Z,3.59
2023-01-17T02:29:18.058Z,3.56
2023-01-17T02:58:05.589Z,3.61
2023-01-17T03:26:42.135Z,3.84
2023-01-17T03:55:05.510Z,3.93
2023-01-17T04:23:48.082Z,3.81
2023-01-17T04:52:27.410Z,3.87
2023-01-17T05:20:47.698Z,3.5
2023-01-17T05:49:27.009Z,3.47
2023-01-17T06:17:50.500Z,3.17
2023-01-17T06:46:17.948Z,2.74
2023-01-17T07:14:44.948Z,2.69
2023-01-17T07:43:16.477Z,2.49
2023-01-17T08:11:40.057Z,2.45
2023-01-17T08:40:02.320Z,2.95
2023-01-17T09:08:33.070Z,2.57
2023-01-17T09:36:52.197Z,3.01
2023-01-17T10:05:11.113Z,3.32
2023-01-17T10:33:31.560Z,3.76
2023-01-17T11:01:55.370Z,4.27
2023-01-17T11:30:19.683Z,4.44
2023-01-17T11:58:54.198Z,4.89
2023-01-17T12:27:21.649Z,5.39
2023-01-17T12:55:48.226Z,5.49
2023-01-17T13:24:16.476Z,4.97
2023-01-17T13:52:42.826Z,5.52
2023-01-17T14:21:03.924Z,5.63
2023-01-17T14:49:17.182Z,5.23
2023-01-17T15:17:57.139Z,5.04
2023-01-17T15:46:15.723Z,4.67
2023-01-17T16:14:59.424Z,4.27
2023-01-17T16:42:52.320Z,4.11
2023-01-17T17:11:08.942Z,3.81
2023-01-17T17:39:34.190Z,3.59
2023-01-17T18:08:08.701Z,3.38
2023-01-17T18:36:36.983Z,3.21
2023-01-17T19:33:31.553Z,2.72
2023-01-17T20:01:45.688Z,2.36
2023-01-17T20:30:21.197Z,2.51
2023-01-17T20:58:44.006Z,2.26
2023-01-17T21:27:02.914Z,2.33
2023-01-17T21:55:37.886Z,2.53
2023-01-17T22:24:06.231Z,2.43
2023-01-17T22:52:48.785Z,2.39
2023-01-17T23:21:13.460Z,2.37
2023-01-17T23:49:48.096Z,2.19
